Terminal Aerodrome Forecast
Issued by NWS Bismarck, ND

Home | Current Version | Previous Version | Text Only | Print | Product List | Glossary Off
Versions: 1 2 3 4 5 6 7 8 9 10 11 12 13 14 15 16 17 18

030
FTUS43 KBIS 230537
TAFBIS
TAF
KBIS 230537Z 2306/2406 13008KT P6SM FEW150
     FM231200 30009KT P6SM SCT150
     FM231600 32014G23KT P6SM SCT050
     FM240100 30009KT P6SM SKC=

USA.gov is the U.S. government's official web portal to all federal, state and local government web resources and services.